createdAt,value
2018-05-07T00:01:09.094Z,47.10
2018-05-07T00:03:37.727Z,47.20
2018-05-07T00:06:07.738Z,47.60
2018-05-07T00:08:37.207Z,47.60
2018-05-07T00:11:06.788Z,47.90
2018-05-07T00:13:36.508Z,48.10
2018-05-07T00:16:05.683Z,48.90
2018-05-07T00:18:34.808Z,48.30
2018-05-07T00:21:03.487Z,48.40
2018-05-07T00:23:32.728Z,48.50
2018-05-07T00:26:01.328Z,48.60
2018-05-07T00:28:30.747Z,48.60
2018-05-07T00:31:01.009Z,48.60
2018-05-07T00:33:30.490Z,48.30
2018-05-07T00:35:59.513Z,48.30
2018-05-07T00:38:28.748Z,48.40
2018-05-07T00:40:58.008Z,48.40
2018-05-07T00:43:27.228Z,48.40
2018-05-07T00:45:56.727Z,48.50
2018-05-07T00:48:25.728Z,48.30
2018-05-07T00:50:54.727Z,48.20
2018-05-07T00:53:24.008Z,48.30
2018-05-07T00:55:52.887Z,48.30
2018-05-07T00:58:22.208Z,48.60
2018-05-07T01:00:51.208Z,48.60
2018-05-07T01:03:20.288Z,48.60
2018-05-07T01:05:49.688Z,48.70
2018-05-07T01:08:18.968Z,48.70
2018-05-07T01:10:47.928Z,48.60
2018-05-07T01:13:17.048Z,48.60
2018-05-07T01:15:45.448Z,48.60
2018-05-07T01:18:14.668Z,48.90
2018-05-07T01:20:43.688Z,49.00
2018-05-07T01:23:12.228Z,49.10
2018-05-07T01:25:41.539Z,49.00
2018-05-07T01:28:10.908Z,49.10
2018-05-07T01:30:40.248Z,49.30
2018-05-07T01:33:09.368Z,49.10
2018-05-07T01:35:38.128Z,49.00
2018-05-07T01:38:07.408Z,49.10
2018-05-07T01:40:37.148Z,49.10
2018-05-07T01:43:05.590Z,49.00
2018-05-07T01:45:34.388Z,49.80
2018-05-07T01:48:04.148Z,49.30
2018-05-07T01:50:33.848Z,49.40
2018-05-07T01:53:03.148Z,49.40
2018-05-07T01:55:32.409Z,49.60
2018-05-07T01:58:01.968Z,49.60
2018-05-07T02:00:31.128Z,49.60
2018-05-07T02:02:59.889Z,49.80
2018-05-07T02:05:29.648Z,50.40
2018-05-07T02:07:58.808Z,50.20
2018-05-07T02:10:27.888Z,50.40
2018-05-07T02:12:56.548Z,51.10
2018-05-07T02:15:25.612Z,50.40
2018-05-07T02:17:54.328Z,50.40
2018-05-07T02:20:23.848Z,51.00
2018-05-07T02:22:52.868Z,50.60
2018-05-07T02:25:22.192Z,51.00
2018-05-07T02:27:51.376Z,51.20
2018-05-07T02:30:20.870Z,51.20
2018-05-07T02:32:49.848Z,51.30
2018-05-07T02:35:18.649Z,51.50
2018-05-07T02:37:47.608Z,51.70
2018-05-07T02:40:17.329Z,51.40
2018-05-07T02:42:46.328Z,51.50
2018-05-07T02:45:15.347Z,51.50
2018-05-07T02:47:44.809Z,51.80
2018-05-07T02:50:13.852Z,52.00
2018-05-07T02:52:42.548Z,52.40
2018-05-07T02:55:11.548Z,52.70
2018-05-07T02:57:40.808Z,52.70
2018-05-07T03:00:09.788Z,52.90
2018-05-07T03:02:38.813Z,53.00
2018-05-07T03:05:07.767Z,52.90
2018-05-07T03:07:37.308Z,53.10
2018-05-07T03:10:06.012Z,53.10
2018-05-07T03:12:35.228Z,53.10
2018-05-07T03:15:04.568Z,53.20
2018-05-07T03:17:33.524Z,53.00
2018-05-07T03:20:01.831Z,53.10
2018-05-07T03:22:30.967Z,53.10
2018-05-07T03:24:59.527Z,53.10
2018-05-07T03:27:28.467Z,53.10
2018-05-07T03:29:57.707Z,53.00
2018-05-07T03:32:26.727Z,53.70
2018-05-07T03:34:55.949Z,53.40
2018-05-07T03:37:24.687Z,53.50
2018-05-07T03:39:53.687Z,53.50
2018-05-07T03:42:23.208Z,53.60
2018-05-07T03:44:52.421Z,53.60
2018-05-07T03:47:21.434Z,54.10
2018-05-07T03:49:50.168Z,53.70
2018-05-07T03:52:19.410Z,53.90
2018-05-07T03:54:48.168Z,53.90
2018-05-07T03:57:16.890Z,53.90
2018-05-07T03:59:47.261Z,54.70
2018-05-07T04:02:16.668Z,54.20
2018-05-07T04:04:45.429Z,54.30
2018-05-07T04:07:15.251Z,54.50
2018-05-07T04:09:44.230Z,54.80
2018-05-07T04:12:14.428Z,55.20
2018-05-07T04:14:43.188Z,55.20
2018-05-07T04:17:23.948Z,55.20
2018-05-07T04:20:04.728Z,54.90
2018-05-07T04:22:45.488Z,54.90
2018-05-07T04:25:13.910Z,55.00
2018-05-07T04:27:42.649Z,55.00
2018-05-07T04:30:11.449Z,55.00
2018-05-07T04:32:40.948Z,54.90
2018-05-07T04:35:09.929Z,54.90
2018-05-07T04:37:38.707Z,54.80
2018-05-07T04:40:08.188Z,54.50
2018-05-07T04:42:37.508Z,54.40
2018-05-07T04:45:05.948Z,54.40
2018-05-07T04:47:34.127Z,54.30
2018-05-07T04:50:03.387Z,54.60
2018-05-07T04:52:32.208Z,54.90
2018-05-07T04:55:00.878Z,55.10
2018-05-07T04:57:30.068Z,55.30
2018-05-07T04:59:59.128Z,55.30
2018-05-07T05:02:28.116Z,55.40
2018-05-07T05:04:56.827Z,55.20
2018-05-07T05:07:26.352Z,55.20
2018-05-07T05:09:55.415Z,55.30
2018-05-07T05:12:25.411Z,55.30
2018-05-07T05:14:54.088Z,55.50
2018-05-07T05:17:23.128Z,55.40
2018-05-07T05:19:52.589Z,55.30
2018-05-07T05:22:22.628Z,55.60
2018-05-07T05:24:51.013Z,55.00
2018-05-07T05:27:20.359Z,54.80
2018-05-07T05:29:49.328Z,54.90
2018-05-07T05:32:18.848Z,55.20
2018-05-07T05:34:48.671Z,54.90
2018-05-07T05:37:18.118Z,54.90
2018-05-07T05:39:47.428Z,54.90
2018-05-07T05:42:16.328Z,55.20
2018-05-07T05:44:45.670Z,55.30
2018-05-07T05:47:14.588Z,55.30
2018-05-07T05:49:44.089Z,55.20
2018-05-07T05:52:12.808Z,54.80
2018-05-07T05:54:41.809Z,54.50
2018-05-07T05:57:11.336Z,54.00
2018-05-07T05:59:41.088Z,53.20
2018-05-07T06:02:09.588Z,53.50
2018-05-07T06:04:38.808Z,53.10
2018-05-07T06:07:07.011Z,53.00
2018-05-07T06:09:36.308Z,53.30
2018-05-07T06:12:05.249Z,52.90
2018-05-07T06:14:34.897Z,53.10
2018-05-07T06:17:04.288Z,53.00
2018-05-07T06:19:33.788Z,52.90
2018-05-07T06:22:03.048Z,52.80
2018-05-07T06:24:32.788Z,51.60
2018-05-07T06:27:01.630Z,51.90
2018-05-07T06:29:30.808Z,51.40
2018-05-07T06:32:00.188Z,52.90
2018-05-07T06:34:28.847Z,53.30
2018-05-07T06:36:57.771Z,53.30
2018-05-07T06:39:26.608Z,53.40
2018-05-07T06:41:55.215Z,53.50
2018-05-07T06:44:24.749Z,53.10
2018-05-07T06:46:54.129Z,52.60
2018-05-07T06:49:24.271Z,52.10
2018-05-07T06:51:52.850Z,51.60
2018-05-07T06:54:22.768Z,50.20
2018-05-07T06:56:52.049Z,50.10
2018-05-07T06:59:20.748Z,49.60
2018-05-07T07:01:49.769Z,49.50
2018-05-07T07:04:19.290Z,48.70
2018-05-07T07:06:48.889Z,48.40
2018-05-07T07:09:17.490Z,48.80
2018-05-07T07:11:46.009Z,48.30
2018-05-07T07:14:14.729Z,48.10
2018-05-07T07:16:44.729Z,49.50
2018-05-07T07:19:13.288Z,49.50
2018-05-07T07:21:42.330Z,48.70
2018-05-07T07:24:11.489Z,46.50
2018-05-07T07:26:40.968Z,45.20
2018-05-07T07:29:10.969Z,45.80
2018-05-07T07:31:40.088Z,45.30
2018-05-07T07:34:09.208Z,45.60
2018-05-07T07:36:38.388Z,44.80
2018-05-07T07:39:06.964Z,44.60
2018-05-07T07:41:36.444Z,45.20
2018-05-07T07:44:05.284Z,45.40
2018-05-07T07:46:33.924Z,46.00
2018-05-07T07:49:03.606Z,45.50
2018-05-07T07:51:32.924Z,44.60
2018-05-07T07:54:01.505Z,45.40
2018-05-07T07:56:30.644Z,45.60
2018-05-07T07:59:00.512Z,45.20
2018-05-07T08:01:29.185Z,45.20
2018-05-07T08:03:58.164Z,45.20
2018-05-07T08:06:27.184Z,45.30
2018-05-07T08:08:55.925Z,45.10
2018-05-07T08:11:25.407Z,44.60
2018-05-07T08:13:53.885Z,44.40
2018-05-07T08:16:23.644Z,44.90
2018-05-07T08:18:52.384Z,44.90
2018-05-07T08:21:20.849Z,45.00
2018-05-07T08:23:48.899Z,44.40
2018-05-07T08:26:17.811Z,44.20
2018-05-07T08:28:46.570Z,44.50
2018-05-07T08:31:15.290Z,44.10
2018-05-07T08:33:43.766Z,44.40
2018-05-07T08:36:12.266Z,44.50
2018-05-07T08:38:41.263Z,44.80
2018-05-07T08:41:11.523Z,45.30
2018-05-07T08:43:41.284Z,45.00
2018-05-07T08:46:10.563Z,45.70
2018-05-07T08:48:39.544Z,45.20
2018-05-07T08:51:09.365Z,45.20
2018-05-07T08:53:39.042Z,45.10
2018-05-07T08:56:07.542Z,44.90
2018-05-07T08:58:37.822Z,46.10
2018-05-07T09:01:07.062Z,45.90
2018-05-07T09:03:36.842Z,45.90
2018-05-07T09:06:06.582Z,46.50
2018-05-07T09:08:36.076Z,46.50
2018-05-07T09:11:05.076Z,46.20
2018-05-07T09:13:33.485Z,45.90
2018-05-07T09:16:02.805Z,45.60
2018-05-07T09:18:32.836Z,46.10
2018-05-07T09:21:01.575Z,47.00
2018-05-07T09:23:31.234Z,46.80
2018-05-07T09:26:00.575Z,46.80
2018-05-07T09:28:29.058Z,46.20
2018-05-07T09:30:58.313Z,46.00
2018-05-07T09:33:27.292Z,46.40
2018-05-07T09:35:56.530Z,46.40
2018-05-07T09:38:25.290Z,46.40
2018-05-07T09:40:54.251Z,47.50
2018-05-07T09:43:23.531Z,47.50
2018-05-07T09:45:52.552Z,47.20
2018-05-07T09:48:21.310Z,46.70
2018-05-07T09:50:50.512Z,46.60
2018-05-07T09:53:19.512Z,46.10
2018-05-07T09:55:48.731Z,45.50
2018-05-07T09:58:17.850Z,44.90
2018-05-07T10:00:47.231Z,44.70
2018-05-07T10:03:16.492Z,44.60
2018-05-07T10:05:45.764Z,43.70
2018-05-07T10:08:14.485Z,44.60
2018-05-07T10:10:44.088Z,44.40
2018-05-07T10:13:12.970Z,45.10
2018-05-07T10:15:42.244Z,44.60
2018-05-07T10:18:11.725Z,43.10
2018-05-07T10:20:40.487Z,45.00
2018-05-07T10:23:09.611Z,44.20
2018-05-07T10:25:38.131Z,43.30
2018-05-07T10:28:07.452Z,43.60
2018-05-07T10:30:36.693Z,43.50
2018-05-07T10:33:05.452Z,42.90
2018-05-07T10:35:34.434Z,41.90
2018-05-07T10:38:04.452Z,42.80
2018-05-07T10:40:33.431Z,42.20
2018-05-07T10:43:02.111Z,41.60
2018-05-07T10:45:32.191Z,41.40
2018-05-07T10:48:01.676Z,40.90
2018-05-07T10:50:30.694Z,41.00
2018-05-07T10:52:59.419Z,40.70
2018-05-07T10:55:28.393Z,40.00
2018-05-07T10:57:57.011Z,39.60
2018-05-07T11:00:25.891Z,39.60
2018-05-07T11:02:55.142Z,40.00
2018-05-07T11:05:24.642Z,39.40
2018-05-07T11:07:53.381Z,38.90
2018-05-07T11:10:22.122Z,39.20
2018-05-07T11:12:50.882Z,39.00
2018-05-07T11:15:20.350Z,38.80
2018-05-07T11:17:49.881Z,38.30
2018-05-07T11:20:18.862Z,37.90
2018-05-07T11:22:47.322Z,37.70
2018-05-07T11:25:16.343Z,37.60
2018-05-07T11:27:44.822Z,37.20
2018-05-07T11:30:14.062Z,37.50
2018-05-07T11:32:43.362Z,37.30
2018-05-07T11:35:12.562Z,36.80
2018-05-07T11:37:41.823Z,36.70
2018-05-07T11:40:10.822Z,36.40
2018-05-07T11:42:40.382Z,36.50
2018-05-07T11:45:09.322Z,36.50
2018-05-07T11:47:38.855Z,36.30
2018-05-07T11:50:07.802Z,36.20
2018-05-07T11:52:36.302Z,36.10
2018-05-07T11:55:05.542Z,36.30
2018-05-07T11:57:35.043Z,36.20
2018-05-07T12:00:03.762Z,36.10
2018-05-07T12:02:33.137Z,36.40
2018-05-07T12:05:02.422Z,36.20
2018-05-07T12:07:32.082Z,35.70
2018-05-07T12:10:01.043Z,35.90
2018-05-07T12:12:30.302Z,35.70
2018-05-07T12:14:59.530Z,35.50
2018-05-07T12:17:29.030Z,35.60
2018-05-07T12:19:58.030Z,34.90
2018-05-07T12:22:27.010Z,34.80
2018-05-07T12:24:56.032Z,35.00
2018-05-07T12:27:24.810Z,34.30
2018-05-07T12:29:54.010Z,33.90
2018-05-07T12:32:22.990Z,34.30
2018-05-07T12:34:51.490Z,34.40
2018-05-07T12:37:19.971Z,34.30
2018-05-07T12:39:48.612Z,33.90
2018-05-07T12:42:17.703Z,34.50
2018-05-07T12:44:47.723Z,34.60
2018-05-07T12:47:16.970Z,34.00
2018-05-07T12:49:46.970Z,33.80
2018-05-07T12:52:15.969Z,33.60
2018-05-07T12:54:45.214Z,33.60
2018-05-07T12:57:14.230Z,34.20
2018-05-07T12:59:43.739Z,34.10
2018-05-07T13:02:12.962Z,34.10
2018-05-07T13:04:41.406Z,34.40
2018-05-07T13:07:10.289Z,34.10
2018-05-07T13:09:39.128Z,33.80
2018-05-07T13:12:08.430Z,33.70
2018-05-07T13:14:36.930Z,34.10
2018-05-07T13:17:06.467Z,33.40
2018-05-07T13:19:35.910Z,33.40
2018-05-07T13:22:04.909Z,33.00
2018-05-07T13:24:33.388Z,32.30
2018-05-07T13:27:02.649Z,32.30
2018-05-07T13:29:32.410Z,31.60
2018-05-07T13:32:01.249Z,31.80
2018-05-07T13:34:30.651Z,32.30
2018-05-07T13:36:59.707Z,31.80
2018-05-07T13:39:28.630Z,31.80
2018-05-07T13:41:57.685Z,31.90
2018-05-07T13:44:26.487Z,31.90
2018-05-07T13:46:55.094Z,32.10
2018-05-07T13:49:23.843Z,31.70
2018-05-07T13:51:53.091Z,31.80
2018-05-07T13:54:21.649Z,31.20
2018-05-07T13:56:50.570Z,31.10
2018-05-07T13:59:19.536Z,31.50
2018-05-07T14:01:48.030Z,31.80
2018-05-07T14:04:16.686Z,32.40
2018-05-07T14:06:45.497Z,32.40
2018-05-07T14:09:14.757Z,32.20
2018-05-07T14:11:43.230Z,31.80
2018-05-07T14:14:12.233Z,32.30
2018-05-07T14:16:40.641Z,32.60
2018-05-07T14:19:09.712Z,32.00
2018-05-07T14:21:38.938Z,32.60
2018-05-07T14:24:07.428Z,33.70
2018-05-07T14:26:36.677Z,32.70
2018-05-07T14:29:05.523Z,32.90
2018-05-07T14:31:35.391Z,33.20
2018-05-07T14:34:04.182Z,33.10
2018-05-07T14:36:33.366Z,33.20
2018-05-07T14:39:01.712Z,33.60
2018-05-07T14:41:30.642Z,33.70
2018-05-07T14:43:59.282Z,33.90
2018-05-07T14:46:28.369Z,33.60
2018-05-07T14:48:57.357Z,34.10
2018-05-07T14:51:26.113Z,34.20
2018-05-07T14:53:55.603Z,34.80
2018-05-07T14:56:24.108Z,34.70
2018-05-07T14:58:53.579Z,35.20
2018-05-07T15:01:22.595Z,35.10
2018-05-07T15:03:51.569Z,35.30
2018-05-07T15:06:20.759Z,35.10
2018-05-07T15:08:50.595Z,35.10
2018-05-07T15:11:19.560Z,35.40
2018-05-07T15:13:49.089Z,36.30
2018-05-07T15:16:18.353Z,36.00
2018-05-07T15:18:47.687Z,36.90
2018-05-07T15:21:17.359Z,36.80
2018-05-07T15:23:45.837Z,37.40
2018-05-07T15:26:14.311Z,38.20
2018-05-07T15:28:43.414Z,40.50
2018-05-07T15:31:12.833Z,43.20
2018-05-07T15:33:42.312Z,43.20
2018-05-07T15:36:11.529Z,43.20
2018-05-07T15:38:40.553Z,43.50
2018-05-07T15:41:09.460Z,43.70
2018-05-07T15:43:38.557Z,44.10
2018-05-07T15:46:07.033Z,44.40
2018-05-07T15:48:36.032Z,44.00
2018-05-07T15:51:05.558Z,43.80
2018-05-07T15:53:34.892Z,43.80
2018-05-07T15:56:04.297Z,43.90
2018-05-07T15:58:32.512Z,43.70
2018-05-07T16:01:01.753Z,43.50
2018-05-07T16:03:30.513Z,44.70
2018-05-07T16:05:59.511Z,44.10
2018-05-07T16:08:28.469Z,44.30
2018-05-07T16:10:58.233Z,44.00
2018-05-07T16:13:27.013Z,43.70
2018-05-07T16:15:55.532Z,43.70
2018-05-07T16:18:24.238Z,43.50
2018-05-07T16:20:53.598Z,43.40
2018-05-07T16:23:22.976Z,43.50
2018-05-07T16:25:52.195Z,43.40
2018-05-07T16:28:20.941Z,44.10
2018-05-07T16:30:51.532Z,47.70
2018-05-07T16:33:19.956Z,49.80
2018-05-07T16:35:48.430Z,50.60
2018-05-07T16:38:17.445Z,51.50
2018-05-07T16:40:47.119Z,52.40
2018-05-07T16:43:15.659Z,50.40
2018-05-07T16:45:44.399Z,51.50
2018-05-07T16:48:13.400Z,51.20
2018-05-07T16:50:42.899Z,52.90
2018-05-07T16:53:12.400Z,52.70
2018-05-07T16:55:41.159Z,53.70
2018-05-07T16:58:10.127Z,53.00
2018-05-07T17:00:39.120Z,51.10
2018-05-07T17:03:07.820Z,51.10
2018-05-07T17:05:36.880Z,52.90
2018-05-07T17:08:07.380Z,52.10
2018-05-07T17:10:36.141Z,52.00
2018-05-07T17:13:05.687Z,52.30
2018-05-07T17:15:35.381Z,52.60
2018-05-07T17:18:04.123Z,52.40
2018-05-07T17:20:32.881Z,52.20
2018-05-07T17:23:02.644Z,52.70
2018-05-07T17:25:31.719Z,52.60
2018-05-07T17:28:01.399Z,52.00
2018-05-07T17:30:30.119Z,51.30
2018-05-07T17:32:59.619Z,51.60
2018-05-07T17:35:27.847Z,50.70
2018-05-07T17:37:57.359Z,51.10
2018-05-07T17:40:27.443Z,51.10
2018-05-07T17:42:56.879Z,50.50
2018-05-07T17:45:37.119Z,51.40
2018-05-07T17:48:16.922Z,50.70
2018-05-07T17:50:46.382Z,49.70
2018-05-07T17:53:15.120Z,49.20
2018-05-07T17:55:43.879Z,48.80
2018-05-07T17:58:13.359Z,48.50
2018-05-07T18:00:42.202Z,48.00
2018-05-07T18:03:11.234Z,49.20
2018-05-07T18:05:39.840Z,47.90
2018-05-07T18:08:09.101Z,48.30
2018-05-07T18:10:38.351Z,48.20
2018-05-07T18:13:07.121Z,48.50
2018-05-07T18:15:36.050Z,48.20
2018-05-07T18:18:05.295Z,48.10
2018-05-07T18:20:34.055Z,48.90
2018-05-07T18:23:02.524Z,48.30
2018-05-07T18:25:31.355Z,48.60
2018-05-07T18:28:01.554Z,48.30
2018-05-07T18:30:30.537Z,48.40
2018-05-07T18:33:00.055Z,48.60
2018-05-07T18:35:28.975Z,48.70
2018-05-07T18:37:58.115Z,49.10
2018-05-07T18:40:27.274Z,49.20
2018-05-07T18:42:56.279Z,49.00
2018-05-07T18:45:25.514Z,48.70
2018-05-07T18:47:54.454Z,48.80
2018-05-07T18:50:23.139Z,48.40
2018-05-07T18:52:51.735Z,48.30
2018-05-07T18:55:21.162Z,48.50
2018-05-07T18:57:49.774Z,48.80
2018-05-07T19:00:18.454Z,48.20
2018-05-07T19:02:47.455Z,48.70
2018-05-07T19:05:17.736Z,48.60
2018-05-07T19:07:46.534Z,48.50
2018-05-07T19:10:15.455Z,48.60
2018-05-07T19:12:45.355Z,48.80
2018-05-07T19:15:13.937Z,49.10
2018-05-07T19:17:43.455Z,49.40
2018-05-07T19:20:12.514Z,49.70
2018-05-07T19:22:40.994Z,49.80
2018-05-07T19:25:09.876Z,50.00
2018-05-07T19:27:38.395Z,50.00
2018-05-07T19:30:07.234Z,50.20
2018-05-07T19:32:36.394Z,50.40
2018-05-07T19:35:05.215Z,50.40
2018-05-07T19:37:34.634Z,50.20
2018-05-07T19:40:03.193Z,50.30
2018-05-07T19:42:31.594Z,50.10
2018-05-07T19:45:00.614Z,50.10
2018-05-07T19:47:29.775Z,50.00
2018-05-07T19:49:59.097Z,50.00
2018-05-07T19:52:27.827Z,49.80
2018-05-07T19:54:56.886Z,50.30
2018-05-07T19:57:25.708Z,50.40
2018-05-07T19:59:54.288Z,50.40
2018-05-07T20:02:23.806Z,50.00
2018-05-07T20:04:52.628Z,50.10
2018-05-07T20:07:22.051Z,50.20
2018-05-07T20:09:50.867Z,50.30
2018-05-07T20:12:20.090Z,49.70
2018-05-07T20:14:48.967Z,49.80
2018-05-07T20:17:18.607Z,50.50
2018-05-07T20:19:46.868Z,50.80
2018-05-07T20:22:15.748Z,50.90
2018-05-07T20:24:45.247Z,50.20
2018-05-07T20:27:13.991Z,49.90
2018-05-07T20:29:44.268Z,50.80
2018-05-07T20:32:14.028Z,50.70
2018-05-07T20:34:43.227Z,50.60
2018-05-07T20:37:12.427Z,50.40
2018-05-07T20:39:42.270Z,50.30
2018-05-07T20:42:11.789Z,50.50
2018-05-07T20:44:41.547Z,50.20
2018-05-07T20:47:10.891Z,49.70
2018-05-07T20:49:39.131Z,49.90
2018-05-07T20:52:09.897Z,49.80
2018-05-07T20:54:39.069Z,50.20
2018-05-07T20:57:07.868Z,50.50
2018-05-07T20:59:37.027Z,51.10
2018-05-07T21:02:06.308Z,51.60
2018-05-07T21:04:35.797Z,51.90
2018-05-07T21:07:05.558Z,51.80
2018-05-07T21:09:35.277Z,52.00
2018-05-07T21:12:04.319Z,52.60
2018-05-07T21:14:32.857Z,52.90
2018-05-07T21:17:01.277Z,53.30
2018-05-07T21:19:30.724Z,52.80
2018-05-07T21:21:59.517Z,53.20
2018-05-07T21:24:29.071Z,52.70
2018-05-07T21:26:57.513Z,52.90
2018-05-07T21:29:26.639Z,53.10
2018-05-07T21:31:55.996Z,53.00
2018-05-07T21:34:24.737Z,53.10
2018-05-07T21:36:53.717Z,53.20
2018-05-07T21:39:22.717Z,53.40
2018-05-07T21:41:51.958Z,53.30
2018-05-07T21:44:21.477Z,53.00
2018-05-07T21:46:50.097Z,52.80
2018-05-07T21:49:19.637Z,52.90
2018-05-07T21:51:48.717Z,52.20
2018-05-07T21:54:18.480Z,52.00
2018-05-07T21:56:47.877Z,52.70
2018-05-07T21:59:17.256Z,52.70
2018-05-07T22:01:46.637Z,53.10
2018-05-07T22:04:15.477Z,55.40
2018-05-07T22:06:44.957Z,56.30
2018-05-07T22:09:13.977Z,56.00
2018-05-07T22:11:43.216Z,56.10
2018-05-07T22:14:12.157Z,56.20
2018-05-07T22:16:41.198Z,56.30
2018-05-07T22:19:10.517Z,56.60
2018-05-07T22:21:39.437Z,56.70
2018-05-07T22:24:09.196Z,56.70
2018-05-07T22:26:39.237Z,56.50
2018-05-07T22:29:08.718Z,56.20
2018-05-07T22:31:37.978Z,56.10
2018-05-07T22:34:06.717Z,56.20
2018-05-07T22:36:35.736Z,56.40
2018-05-07T22:39:04.584Z,56.30
2018-05-07T22:41:33.384Z,56.00
2018-05-07T22:44:02.476Z,56.00
2018-05-07T22:46:31.536Z,56.70
2018-05-07T22:49:01.242Z,57.40
2018-05-07T22:51:29.671Z,57.60
2018-05-07T22:53:59.678Z,57.10
2018-05-07T22:56:28.156Z,57.50
2018-05-07T22:58:57.415Z,57.50
2018-05-07T23:01:26.937Z,58.10
2018-05-07T23:03:55.994Z,57.70
2018-05-07T23:06:24.894Z,57.90
2018-05-07T23:08:54.655Z,57.80
2018-05-07T23:11:23.916Z,57.90
2018-05-07T23:13:53.015Z,57.80
2018-05-07T23:16:22.535Z,57.50
2018-05-07T23:18:51.654Z,57.60
2018-05-07T23:21:20.815Z,57.70
2018-05-07T23:23:49.655Z,57.60
2018-05-07T23:26:18.715Z,57.70
2018-05-07T23:28:47.916Z,57.70
2018-05-07T23:31:16.640Z,57.90
2018-05-07T23:33:46.155Z,58.30
2018-05-07T23:36:15.594Z,58.10
2018-05-07T23:38:44.875Z,57.90
2018-05-07T23:41:13.895Z,58.10
2018-05-07T23:43:43.115Z,58.00
2018-05-07T23:46:12.374Z,58.00
2018-05-07T23:48:41.237Z,58.10
2018-05-07T23:51:10.115Z,58.10
2018-05-07T23:53:38.854Z,58.20
2018-05-07T23:56:07.575Z,58.20
2018-05-07T23:58:37.075Z,58.30
